< < Back
Terminal Aerodrome Forecast


Current Version              Previous Versions:   1  2  3  4  5  6  7  8  9  

Terminal Aerodrome Forecast

395
FTUS42 KFFC 201700
TAFMCN
TAF
KMCN 201734Z 2018/2118 05012G20KT P6SM BKN040
     FM202100 04011KT P6SM BKN040
     FM210000 04005KT P6SM SCT040
     FM211500 28006KT P6SM SCT250=



Latest METAR

811
SAUS80 KWBC 210400 RRB
MTRMCN
METAR KMCN 210353Z AUTO 27003KT 10SM CLR 10/09 A3017 RMK AO2 SLP213
T01000094 TSNO


USA.gov is the U.S. government's official web portal to all federal, state and local government web resources and services.